createdAt,value
2018-09-27T05:09:37.977Z,46.40
2018-09-27T05:12:06.238Z,46.50
2018-09-27T05:14:34.404Z,46.10
2018-09-27T05:17:02.565Z,46.80
2018-09-27T05:19:30.837Z,46.50
2018-09-27T05:21:58.989Z,47.00
2018-09-27T05:24:27.196Z,47.20
2018-09-27T05:26:55.336Z,46.50
2018-09-27T05:29:23.505Z,47.10
2018-09-27T05:31:51.653Z,47.40
2018-09-27T05:34:19.838Z,46.80
2018-09-27T05:36:47.988Z,47.00
2018-09-27T05:39:16.153Z,47.20
2018-09-27T05:41:44.300Z,47.50
2018-09-27T05:44:12.452Z,47.40
2018-09-27T05:46:40.596Z,47.20
2018-09-27T05:49:08.754Z,47.90
2018-09-27T05:51:36.955Z,48.20
2018-09-27T05:54:05.118Z,48.60
2018-09-27T05:56:33.261Z,48.40
2018-09-27T05:59:01.428Z,48.60
2018-09-27T06:01:29.595Z,48.20
2018-09-27T06:03:57.747Z,48.90
2018-09-27T06:06:25.890Z,48.30
2018-09-27T06:08:54.211Z,48.60
2018-09-27T06:11:22.429Z,48.80
2018-09-27T06:13:50.549Z,49.20
2018-09-27T06:16:18.724Z,49.30
2018-09-27T06:18:46.939Z,49.80
2018-09-27T06:21:15.098Z,50.10
2018-09-27T06:23:43.277Z,50.50
2018-09-27T06:26:11.454Z,51.00
2018-09-27T06:28:39.593Z,51.00
2018-09-27T06:31:07.978Z,51.90
2018-09-27T06:33:36.198Z,51.80
2018-09-27T06:36:04.329Z,51.70
2018-09-27T06:38:32.543Z,52.00
2018-09-27T06:41:00.673Z,52.80
2018-09-27T06:43:28.816Z,52.10
2018-09-27T06:45:56.971Z,52.50
2018-09-27T06:48:25.701Z,52.20
2018-09-27T06:50:53.785Z,52.80
2018-09-27T06:53:21.941Z,53.30
2018-09-27T06:55:50.182Z,53.40
2018-09-27T06:58:18.288Z,54.00
2018-09-27T07:00:46.453Z,54.00
2018-09-27T07:03:14.610Z,54.60
2018-09-27T07:05:42.757Z,55.10
2018-09-27T07:08:10.925Z,54.60
2018-09-27T07:10:39.097Z,54.60
2018-09-27T07:13:07.273Z,55.30
2018-09-27T07:15:35.493Z,54.80
2018-09-27T07:18:03.617Z,56.20
2018-09-27T07:20:31.854Z,55.70
2018-09-27T07:22:59.982Z,55.40
2018-09-27T07:25:28.129Z,56.30
2018-09-27T07:27:56.572Z,56.40
2018-09-27T07:30:24.740Z,56.70
2018-09-27T07:32:52.886Z,58.00
2018-09-27T07:35:21.043Z,57.80
2018-09-27T07:37:49.193Z,57.60
2018-09-27T07:40:17.353Z,56.60
2018-09-27T07:42:45.522Z,57.10
2018-09-27T07:45:13.676Z,58.90
2018-09-27T07:47:41.836Z,58.50
2018-09-27T07:50:09.972Z,58.00
2018-09-27T07:52:38.145Z,58.70
2018-09-27T07:55:06.583Z,58.80
2018-09-27T07:57:34.738Z,58.60
2018-09-27T08:00:03.034Z,58.20
2018-09-27T08:02:31.301Z,59.00
2018-09-27T08:04:59.384Z,58.70
2018-09-27T08:07:27.555Z,58.70
2018-09-27T08:09:55.711Z,59.10
2018-09-27T08:12:23.878Z,58.60
2018-09-27T08:14:52.024Z,58.30
2018-09-27T08:17:20.279Z,59.20
2018-09-27T08:19:48.377Z,59.70
2018-09-27T08:22:16.677Z,60.10
2018-09-27T08:24:44.831Z,60.20
2018-09-27T08:27:13.026Z,59.90
2018-09-27T08:29:41.193Z,59.60
2018-09-27T08:32:09.461Z,60.20
2018-09-27T08:34:37.616Z,61.00
2018-09-27T08:37:06.041Z,60.90
2018-09-27T08:39:34.181Z,60.90
2018-09-27T08:42:02.335Z,60.40
2018-09-27T08:44:30.607Z,59.70
2018-09-27T08:46:58.674Z,60.10
2018-09-27T08:49:26.840Z,60.10
2018-09-27T08:51:55.004Z,61.00
2018-09-27T08:54:23.191Z,60.90
2018-09-27T08:56:51.354Z,60.40
2018-09-27T08:59:19.505Z,61.70
2018-09-27T09:01:47.686Z,61.10
2018-09-27T09:04:15.853Z,60.80
2018-09-27T09:06:44.069Z,61.20
2018-09-27T09:09:13.329Z,61.30
2018-09-27T09:11:41.521Z,62.20
2018-09-27T09:14:10.697Z,62.00
2018-09-27T09:16:38.832Z,62.60
2018-09-27T09:19:06.995Z,63.00
2018-09-27T09:21:35.326Z,63.30
2018-09-27T09:24:03.520Z,62.60
2018-09-27T09:26:31.942Z,62.70
2018-09-27T09:29:00.207Z,63.00
2018-09-27T09:31:28.401Z,63.60
2018-09-27T09:33:56.566Z,63.70
2018-09-27T09:36:24.811Z,63.20
2018-09-27T09:38:52.979Z,63.20
2018-09-27T09:41:21.133Z,63.90
2018-09-27T09:43:49.317Z,63.50
2018-09-27T09:46:17.514Z,64.20
2018-09-27T09:48:45.709Z,64.70
2018-09-27T09:51:13.864Z,64.20
2018-09-27T09:53:42.039Z,65.00
2018-09-27T09:56:10.195Z,64.50
2018-09-27T09:58:38.364Z,64.30
2018-09-27T10:01:06.709Z,65.40
2018-09-27T10:03:34.885Z,64.00
2018-09-27T10:06:03.061Z,64.20
2018-09-27T10:08:31.266Z,64.00
2018-09-27T10:10:59.412Z,63.70
2018-09-27T10:13:27.586Z,62.90
2018-09-27T10:15:55.724Z,63.40
2018-09-27T10:18:23.894Z,64.10
2018-09-27T10:20:52.063Z,64.40
2018-09-27T10:23:20.238Z,64.10
2018-09-27T10:25:48.445Z,64.30
2018-09-27T10:28:16.639Z,63.20
2018-09-27T10:30:44.833Z,62.60
2018-09-27T10:33:12.980Z,62.60
2018-09-27T10:35:41.160Z,62.90
2018-09-27T10:38:09.353Z,62.60
2018-09-27T10:40:37.540Z,63.00
2018-09-27T10:43:05.712Z,62.90
2018-09-27T10:45:33.852Z,62.70
2018-09-27T10:48:01.997Z,62.70
2018-09-27T10:50:30.152Z,63.00
2018-09-27T10:52:58.307Z,62.40
2018-09-27T10:55:26.508Z,61.80
2018-09-27T10:57:54.683Z,61.80
2018-09-27T11:00:23.756Z,62.30
2018-09-27T11:02:52.753Z,62.00
2018-09-27T11:05:20.915Z,63.40
2018-09-27T11:07:49.090Z,63.80
2018-09-27T11:10:17.266Z,64.30
2018-09-27T11:12:45.457Z,64.80
2018-09-27T11:15:13.617Z,64.90
2018-09-27T11:17:41.805Z,65.80
2018-09-27T11:20:09.966Z,66.20
2018-09-27T11:22:38.178Z,66.20
2018-09-27T11:25:06.369Z,66.00
2018-09-27T11:27:34.549Z,66.60
2018-09-27T11:30:08.193Z,66.20
2018-09-27T11:32:40.669Z,66.20
2018-09-27T11:35:08.849Z,65.60
2018-09-27T11:37:37.013Z,66.00
2018-09-27T11:40:06.192Z,65.50
2018-09-27T11:42:34.645Z,65.40
2018-09-27T11:45:02.724Z,65.10
2018-09-27T11:47:30.950Z,64.80
2018-09-27T11:49:59.540Z,64.00
2018-09-27T11:52:27.691Z,64.40
2018-09-27T11:54:55.886Z,64.40
2018-09-27T11:57:24.026Z,65.30
2018-09-27T11:59:52.263Z,64.80
2018-09-27T12:02:20.457Z,65.10
2018-09-27T12:04:48.623Z,65.30
2018-09-27T12:07:16.897Z,65.60
2018-09-27T12:09:45.077Z,65.30
2018-09-27T12:12:13.313Z,65.80
2018-09-27T12:14:41.540Z,65.00
2018-09-27T12:17:09.733Z,66.50
2018-09-27T12:19:37.931Z,66.30
2018-09-27T12:22:06.214Z,65.30
2018-09-27T12:24:34.411Z,66.60
2018-09-27T12:27:02.557Z,66.30
2018-09-27T12:29:30.739Z,65.70
2018-09-27T12:31:58.941Z,65.70
2018-09-27T12:34:27.476Z,66.10
2018-09-27T12:36:55.609Z,65.60
2018-09-27T12:39:23.804Z,66.30
2018-09-27T12:41:52.047Z,66.30
2018-09-27T12:44:20.133Z,66.50
2018-09-27T12:46:48.420Z,67.00
2018-09-27T12:49:16.593Z,66.60
2018-09-27T12:51:44.913Z,66.20
2018-09-27T12:54:12.965Z,66.90
2018-09-27T12:56:41.171Z,66.70
2018-09-27T12:59:09.375Z,66.30
2018-09-27T13:01:37.747Z,66.90
2018-09-27T13:04:05.929Z,66.70
2018-09-27T13:06:34.083Z,66.30
2018-09-27T13:09:02.485Z,66.90
2018-09-27T13:11:30.530Z,66.70
2018-09-27T13:13:58.962Z,66.90
2018-09-27T13:16:27.123Z,67.20
2018-09-27T13:18:57.940Z,66.90
2018-09-27T13:21:23.562Z,67.20
2018-09-27T13:23:51.735Z,67.60
2018-09-27T13:26:19.979Z,67.90
2018-09-27T13:28:48.128Z,67.60
2018-09-27T13:31:16.402Z,66.60
2018-09-27T13:33:44.604Z,66.40
2018-09-27T13:36:12.789Z,67.00
2018-09-27T13:38:40.961Z,67.00
2018-09-27T13:41:09.143Z,66.40
2018-09-27T13:43:37.316Z,66.40
2018-09-27T13:46:05.490Z,67.10
2018-09-27T13:48:33.680Z,67.10
2018-09-27T13:51:01.888Z,66.30
2018-09-27T13:53:30.024Z,66.20
2018-09-27T13:55:58.211Z,66.20
2018-09-27T13:58:26.449Z,66.20
2018-09-27T14:00:54.603Z,66.30
2018-09-27T14:03:22.806Z,67.10
2018-09-27T14:05:50.981Z,66.70
2018-09-27T14:08:19.145Z,67.10
2018-09-27T14:10:47.337Z,66.60
2018-09-27T14:13:15.483Z,65.70
2018-09-27T14:15:43.664Z,65.40
2018-09-27T14:18:11.853Z,65.80
2018-09-27T14:20:40.008Z,65.30
2018-09-27T14:23:08.179Z,65.10
2018-09-27T14:25:36.384Z,65.10
2018-09-27T14:28:04.525Z,65.50
2018-09-27T14:30:32.706Z,66.10
2018-09-27T14:33:00.897Z,65.90
2018-09-27T14:35:29.058Z,65.30
2018-09-27T14:37:57.227Z,65.80
2018-09-27T14:40:25.401Z,66.20
2018-09-27T14:42:53.575Z,65.90
2018-09-27T14:45:21.749Z,66.00
2018-09-27T14:47:50.011Z,66.10
2018-09-27T14:50:18.139Z,65.60
2018-09-27T14:52:46.372Z,65.30
2018-09-27T14:55:14.627Z,65.70
2018-09-27T14:57:42.896Z,66.40
2018-09-27T15:00:11.064Z,65.70
2018-09-27T15:02:39.282Z,66.40
2018-09-27T15:05:08.044Z,64.90
2018-09-27T15:07:36.202Z,64.60
2018-09-27T15:10:04.377Z,64.40
2018-09-27T15:12:32.573Z,65.50
2018-09-27T15:15:01.832Z,65.30
2018-09-27T15:17:30.067Z,65.90
2018-09-27T15:19:58.230Z,65.40
2018-09-27T15:22:26.441Z,65.90
2018-09-27T15:24:54.572Z,66.20
2018-09-27T15:27:22.715Z,66.10
2018-09-27T15:29:50.898Z,66.20
2018-09-27T15:32:19.089Z,66.10
2018-09-27T15:34:47.377Z,65.90
2018-09-27T15:37:15.541Z,66.20
2018-09-27T15:39:43.765Z,66.00
2018-09-27T15:42:11.968Z,65.60
2018-09-27T15:44:40.124Z,65.70
2018-09-27T15:47:08.329Z,66.60
2018-09-27T15:49:36.517Z,65.70
2018-09-27T15:52:04.680Z,65.30
2018-09-27T15:54:32.851Z,65.90
2018-09-27T15:57:01.007Z,66.10
2018-09-27T15:59:29.209Z,66.30
2018-09-27T16:01:57.433Z,66.70
2018-09-27T16:04:25.603Z,66.90
2018-09-27T16:06:53.774Z,67.20
2018-09-27T16:09:21.963Z,67.40
2018-09-27T16:11:50.135Z,67.90
2018-09-27T16:14:18.305Z,68.10
2018-09-27T16:16:46.472Z,69.90
2018-09-27T16:19:14.818Z,69.90
2018-09-27T16:21:43.026Z,70.50
2018-09-27T16:24:11.285Z,71.30
2018-09-27T16:26:39.436Z,72.20
2018-09-27T16:29:07.924Z,72.80
2018-09-27T16:31:36.102Z,73.40
2018-09-27T16:34:04.274Z,74.90
2018-09-27T16:36:32.472Z,75.00
2018-09-27T16:39:00.654Z,76.00
2018-09-27T16:41:28.832Z,76.60
2018-09-27T16:43:56.994Z,76.70
2018-09-27T16:46:25.389Z,77.30
2018-09-27T16:48:53.581Z,77.80
2018-09-27T16:51:21.737Z,78.80
2018-09-27T16:53:49.951Z,79.10
2018-09-27T16:56:18.125Z,79.30
2018-09-27T16:58:46.363Z,79.80
2018-09-27T17:01:14.802Z,80.50
2018-09-27T17:03:43.005Z,80.20
2018-09-27T17:06:11.253Z,80.50
2018-09-27T17:08:39.441Z,81.80
2018-09-27T17:11:07.700Z,81.20
2018-09-27T17:13:35.863Z,82.20
2018-09-27T17:16:06.375Z,82.30
2018-09-27T17:18:34.661Z,83.00
2018-09-27T17:21:02.820Z,82.50
2018-09-27T17:23:30.996Z,82.90
2018-09-27T17:25:59.162Z,83.40
2018-09-27T17:28:27.495Z,83.80
2018-09-27T17:30:55.729Z,84.10
2018-09-27T17:33:23.890Z,84.40
2018-09-27T17:35:52.045Z,84.80
2018-09-27T17:38:20.245Z,85.80
2018-09-27T17:40:48.415Z,85.80
2018-09-27T17:43:16.817Z,85.60
2018-09-27T17:45:45.039Z,86.20
2018-09-27T17:48:13.255Z,86.50
2018-09-27T17:50:41.437Z,87.00
2018-09-27T17:53:09.670Z,87.40
2018-09-27T17:55:37.958Z,87.10
2018-09-27T17:58:05.986Z,88.60
2018-09-27T18:00:34.145Z,89.60
2018-09-27T18:03:02.334Z,90.10
2018-09-27T18:05:30.561Z,89.50
2018-09-27T18:07:58.717Z,90.00
2018-09-27T18:10:26.992Z,90.00
2018-09-27T18:12:55.290Z,90.10
2018-09-27T18:15:23.547Z,90.30
2018-09-27T18:17:51.850Z,90.20
2018-09-27T18:20:20.090Z,90.50
2018-09-27T18:22:48.389Z,90.60
2018-09-27T18:25:16.713Z,90.70
2018-09-27T18:27:44.984Z,90.80
2018-09-27T18:30:14.058Z,91.10
2018-09-27T18:32:42.400Z,91.10
2018-09-27T18:35:10.693Z,91.60
2018-09-27T18:37:39.017Z,91.60
2018-09-27T18:40:07.201Z,91.50
2018-09-27T18:42:35.362Z,91.80
2018-09-27T18:45:03.517Z,91.80
2018-09-27T18:47:31.679Z,91.90
2018-09-27T18:49:59.902Z,92.00
2018-09-27T18:52:28.023Z,91.90
2018-09-27T18:54:56.182Z,92.00
2018-09-27T18:57:24.353Z,92.00
2018-09-27T18:59:52.497Z,92.30
2018-09-27T19:02:20.754Z,92.10
2018-09-27T19:04:48.951Z,92.20
2018-09-27T19:07:17.086Z,92.20
2018-09-27T19:09:45.662Z,92.20
2018-09-27T19:12:13.934Z,92.40
2018-09-27T19:14:42.093Z,92.80
2018-09-27T19:17:10.369Z,92.60
2018-09-27T19:19:38.441Z,92.70
2018-09-27T19:22:06.661Z,92.80
2018-09-27T19:24:34.809Z,92.70
2018-09-27T19:27:03.065Z,92.80
2018-09-27T19:29:31.236Z,93.00
2018-09-27T19:31:59.428Z,93.10
2018-09-27T19:34:27.601Z,93.20
2018-09-27T19:36:55.733Z,93.20
2018-09-27T19:39:23.962Z,93.30
2018-09-27T19:41:52.163Z,93.70
